Rankin, Michigan
Current Conditions -  °F | °C
As of 11:53 PM on Saturday 22 Nov 2014 (Local Time) from KFNT Reporting Station
Haze Haze  
Wind Chill: 45°   Ceiling: 6000
Heat Index: 48°   Visibility: 6mi
Dew Point: 44°   Wind: 6mph
Humidity: 86%   Direction: 190°S
Pressure: 29.91"   Gusts: NA
Location:  42.9382°N, 83.8244°W
Report Text: KFNT 230453Z AUTO 19005KT 6SM BR SCT024 OVC060 09/07 A2991 RMK AO2 SLP133 T00890067 400891050
Loading
Personal Weather Stations






























Interactive Weather Map New forecast layout! Learn more

10-Day Weather Forecast

Advertisements
Track Severe Weather on mobile